Lord Of The Glens — ZQOE9 — position and weather

sailwx.info

Track history (hours):
 
Tides and Currents Weather Stations Pressure Air Temp Water Temp Dewpoint Dewpoint Depression Visibility Wind Speed Wind Dir Waves Ship Positions

Lord Of The Glens

Operator: V Ships UK Ltd

Last reported at 2018-Jul-20 11:24 UTC. Time now 2018-Jul-22 06:58 UTC.
Position N 56°36' W 005°24'.

Length 45 m; draft 2.8 m.

Type: Passenger vessel. MMSI: 235000295.

Date/timePositionNaut miles runAvg speedWind from/ knotsBaromVisibWave heightAir tempDewpointWater temp
2018-Jul-20 11:24N 56°36' W 005°24'4 9.5
2018-Jul-20 11:00N 56°32' W 005°26'510.1
2018-Jul-20 10:30N 56°28' W 005°30'3 0.2
2018-Jul-19 16:39N 56°25' W 005°29'1 7.8
2018-Jul-19 16:30N 56°26' W 005°30'7 0.8
2018-Jul-19 07:39N 56°29' W 005°42'40 0.9
2018-Jul-17 12:58N 57°09' W 005°45'5 9.8
2018-Jul-17 12:24N 57°13' W 005°39'4 8.6
2018-Jul-17 11:59N 57°17' W 005°42'1 1.3
2018-Jul-17 11:29N 57°17' W 005°43'0 0.0
2018-Jul-17 11:00N 57°17' W 005°43'0 0.0
2018-Jul-17 10:29N 57°17' W 005°43'0 0.0
2018-Jul-17 09:57N 57°17' W 005°43'0 0.0
2018-Jul-17 09:30N 57°17' W 005°43'0 0.0
2018-Jul-17 09:00N 57°17' W 005°43'0 0.0
2018-Jul-17 08:26N 57°17' W 005°43'0 0.0
2018-Jul-17 08:00N 57°17' W 005°43'0 0.0
2018-Jul-17 07:26N 57°17' W 005°43'0 0.0
2018-Jul-17 06:58N 57°17' W 005°43'0 0.0
2018-Jul-17 06:30N 57°17' W 005°43'0 0.0
2018-Jul-17 06:00N 57°17' W 005°43'0 0.0
2018-Jul-17 05:28N 57°17' W 005°43'0 0.0
2018-Jul-17 04:56N 57°17' W 005°43'0 0.0
2018-Jul-17 04:27N 57°17' W 005°43'0 0.0
2018-Jul-17 04:00N 57°17' W 005°43'0 0.0
2018-Jul-17 03:30N 57°17' W 005°43'0 0.0
2018-Jul-17 02:55N 57°17' W 005°43'0 0.0
2018-Jul-17 02:24N 57°17' W 005°43'0 0.0
2018-Jul-17 01:59N 57°17' W 005°43'0 0.0
2018-Jul-17 01:30N 57°17' W 005°43'0 0.0
2018-Jul-17 00:54N 57°17' W 005°43'0 0.0
2018-Jul-17 00:25N 57°17' W 005°43'0 0.0
2018-Jul-16 23:29N 57°17' W 005°43'0 0.0
2018-Jul-16 22:57N 57°17' W 005°43'0 0.0
2018-Jul-16 22:26N 57°17' W 005°43'0 0.0
2018-Jul-16 21:57N 57°17' W 005°43'0 0.0
2018-Jul-16 21:28N 57°17' W 005°43'0 0.0
2018-Jul-16 20:59N 57°17' W 005°43'0 0.0
2018-Jul-16 20:29N 57°17' W 005°43'0 0.0
2018-Jul-16 19:58N 57°17' W 005°43'0 0.0
2018-Jul-16 19:27N 57°17' W 005°43'0 0.0
2018-Jul-16 18:59N 57°17' W 005°43'0 0.0
2018-Jul-16 18:30N 57°17' W 005°43'0 0.0
2018-Jul-16 17:57N 57°17' W 005°43'0 0.0
2018-Jul-16 17:28N 57°17' W 005°43'0 0.0
2018-Jul-16 16:57N 57°17' W 005°43'0 0.0
2018-Jul-16 16:29N 57°17' W 005°43'0 0.0
2018-Jul-16 16:00N 57°17' W 005°43'0 0.0
2018-Jul-16 15:28N 57°17' W 005°43'0 0.0
2018-Jul-16 14:59N 57°17' W 005°43'0 0.0
2018-Jul-16 14:27N 57°17' W 005°43'0 0.0
2018-Jul-16 14:00N 57°17' W 005°43'0 0.0
2018-Jul-16 13:27N 57°17' W 005°43'0 0.0
2018-Jul-16 12:58N 57°17' W 005°43'0 0.0
2018-Jul-16 12:27N 57°17' W 005°43'0 0.0
2018-Jul-16 11:58N 57°17' W 005°43'0 0.0
2018-Jul-16 11:29N 57°17' W 005°43'0 0.0
2018-Jul-16 11:00N 57°17' W 005°43'0 0.0
2018-Jul-16 10:28N 57°17' W 005°43'0 0.0
2018-Jul-16 09:59N 57°17' W 005°43'0 0.0
2018-Jul-16 09:30N 57°17' W 005°43'0 0.0
2018-Jul-16 09:00N 57°17' W 005°43'0 0.0
2018-Jul-16 08:28N 57°17' W 005°43'0 0.0
2018-Jul-16 07:59N 57°17' W 005°43'0 0.0
2018-Jul-16 07:30N 57°17' W 005°43'0 0.0
2018-Jul-16 07:00N 57°17' W 005°43'0 0.0
2018-Jul-16 06:28N 57°17' W 005°43'0 0.0
2018-Jul-16 05:58N 57°17' W 005°43'0 0.0
2018-Jul-16 05:30N 57°17' W 005°43'0 0.0
2018-Jul-16 04:58N 57°17' W 005°43'0 0.0
2018-Jul-16 04:29N 57°17' W 005°43'0 0.0
2018-Jul-16 03:58N 57°17' W 005°43'0 0.0
2018-Jul-16 03:29N 57°17' W 005°43'0 0.0
2018-Jul-16 03:00N 57°17' W 005°43'0 0.0
2018-Jul-16 02:28N 57°17' W 005°43'0 0.0
2018-Jul-16 01:59N 57°17' W 005°43'0 0.0
2018-Jul-16 01:30N 57°17' W 005°43'0 0.0
2018-Jul-16 00:59N 57°17' W 005°43'0 0.0
2018-Jul-16 00:29N 57°17' W 005°43'0 0.0
2018-Jul-15 23:58N 57°17' W 005°43'0 0.0
2018-Jul-15 23:29N 57°17' W 005°43'0 0.0
2018-Jul-15 22:52N 57°17' W 005°43'0 0.0
2018-Jul-15 22:26N 57°17' W 005°43'0 0.0
2018-Jul-15 21:59N 57°17' W 005°43'0 0.0
2018-Jul-15 21:25N 57°17' W 005°43'0 0.0
2018-Jul-15 20:59N 57°17' W 005°43'0 0.0
2018-Jul-15 20:24N 57°17' W 005°43'0 0.0
2018-Jul-15 19:54N 57°17' W 005°43'0 0.0
2018-Jul-15 19:26N 57°17' W 005°43'0 0.0
2018-Jul-15 19:00N 57°17' W 005°43'0 0.0
2018-Jul-15 18:28N 57°17' W 005°43'0 0.0
2018-Jul-15 18:00N 57°17' W 005°43'0 0.0
2018-Jul-15 17:28N 57°17' W 005°43'0 0.0
2018-Jul-15 16:59N 57°17' W 005°43'0 0.0
2018-Jul-15 16:30N 57°17' W 005°43'0 0.0
2018-Jul-15 15:59N 57°17' W 005°43'0 0.0
2018-Jul-15 15:27N 57°17' W 005°43'0 0.0
2018-Jul-15 14:59N 57°17' W 005°43'0 0.0
2018-Jul-15 14:24N 57°17' W 005°43'0 0.0
2018-Jul-15 13:58N 57°17' W 005°43'0 0.0
2018-Jul-15 13:28N 57°17' W 005°43'0 0.4
2018-Jul-15 13:00N 57°17' W 005°43'3 5.9
2018-Jul-15 12:30N 57°14' W 005°39'3 6.6
2018-Jul-15 11:59N 57°11' W 005°42'41 0.9
2018-Jul-13 16:05N 56°30' W 005°42'110.4
2018-Jul-13 16:00N 56°29' W 005°42'2 0.2
2018-Jul-13 07:47N 56°28' W 005°39'2 8.7
2018-Jul-13 07:30N 56°27' W 005°36'4 0.2
2018-Jul-12 10:34N 56°25' W 005°29'1 5.9
2018-Jul-12 10:26N 56°25' W 005°29'2 5.9
2018-Jul-12 10:00N 56°28' W 005°30'510.0
2018-Jul-12 09:30N 56°33' W 005°26'6 9.4
2018-Jul-12 08:53N 56°38' W 005°22'  
Track history (hours):
 
Tides and Currents Weather Stations Pressure Air Temp Water Temp Dewpoint Dewpoint Depression Visibility Wind Speed Wind Dir Waves Ship Positions

Lord Of The Glens

Operator: V Ships UK Ltd

Last reported at 2018-Jul-20 11:24 UTC. Time now 2018-Jul-22 06:58 UTC.
Position N 56°36' W 005°24'.

Length 45 m; draft 2.8 m.

Type: Passenger vessel. MMSI: 235000295.

Date/timePositionNaut miles runAvg speedWind from/ knotsBaromVisibWave heightAir tempDewpointWater temp
2018-Jul-20 11:24N 56°36' W 005°24'4 9.5
2018-Jul-20 11:00N 56°32' W 005°26'510.1
2018-Jul-20 10:30N 56°28' W 005°30'3 0.2
2018-Jul-19 16:39N 56°25' W 005°29'1 7.8
2018-Jul-19 16:30N 56°26' W 005°30'7 0.8
2018-Jul-19 07:39N 56°29' W 005°42'40 0.9
2018-Jul-17 12:58N 57°09' W 005°45'5 9.8
2018-Jul-17 12:24N 57°13' W 005°39'4 8.6
2018-Jul-17 11:59N 57°17' W 005°42'1 1.3
2018-Jul-17 11:29N 57°17' W 005°43'0 0.0
2018-Jul-17 11:00N 57°17' W 005°43'0 0.0
2018-Jul-17 10:29N 57°17' W 005°43'0 0.0
2018-Jul-17 09:57N 57°17' W 005°43'0 0.0
2018-Jul-17 09:30N 57°17' W 005°43'0 0.0
2018-Jul-17 09:00N 57°17' W 005°43'0 0.0
2018-Jul-17 08:26N 57°17' W 005°43'0 0.0
2018-Jul-17 08:00N 57°17' W 005°43'0 0.0
2018-Jul-17 07:26N 57°17' W 005°43'0 0.0
2018-Jul-17 06:58N 57°17' W 005°43'0 0.0
2018-Jul-17 06:30N 57°17' W 005°43'0 0.0
2018-Jul-17 06:00N 57°17' W 005°43'0 0.0
2018-Jul-17 05:28N 57°17' W 005°43'0 0.0
2018-Jul-17 04:56N 57°17' W 005°43'0 0.0
2018-Jul-17 04:27N 57°17' W 005°43'0 0.0
2018-Jul-17 04:00N 57°17' W 005°43'0 0.0
2018-Jul-17 03:30N 57°17' W 005°43'0 0.0
2018-Jul-17 02:55N 57°17' W 005°43'0 0.0
2018-Jul-17 02:24N 57°17' W 005°43'0 0.0
2018-Jul-17 01:59N 57°17' W 005°43'0 0.0
2018-Jul-17 01:30N 57°17' W 005°43'0 0.0
2018-Jul-17 00:54N 57°17' W 005°43'0 0.0
2018-Jul-17 00:25N 57°17' W 005°43'0 0.0
2018-Jul-16 23:29N 57°17' W 005°43'0 0.0
2018-Jul-16 22:57N 57°17' W 005°43'0 0.0
2018-Jul-16 22:26N 57°17' W 005°43'0 0.0
2018-Jul-16 21:57N 57°17' W 005°43'0 0.0
2018-Jul-16 21:28N 57°17' W 005°43'0 0.0
2018-Jul-16 20:59N 57°17' W 005°43'0 0.0
2018-Jul-16 20:29N 57°17' W 005°43'0 0.0
2018-Jul-16 19:58N 57°17' W 005°43'0 0.0
2018-Jul-16 19:27N 57°17' W 005°43'0 0.0
2018-Jul-16 18:59N 57°17' W 005°43'0 0.0
2018-Jul-16 18:30N 57°17' W 005°43'0 0.0
2018-Jul-16 17:57N 57°17' W 005°43'0 0.0
2018-Jul-16 17:28N 57°17' W 005°43'0 0.0
2018-Jul-16 16:57N 57°17' W 005°43'0 0.0
2018-Jul-16 16:29N 57°17' W 005°43'0 0.0
2018-Jul-16 16:00N 57°17' W 005°43'0 0.0
2018-Jul-16 15:28N 57°17' W 005°43'0 0.0
2018-Jul-16 14:59N 57°17' W 005°43'0 0.0
2018-Jul-16 14:27N 57°17' W 005°43'0 0.0
2018-Jul-16 14:00N 57°17' W 005°43'0 0.0
2018-Jul-16 13:27N 57°17' W 005°43'0 0.0
2018-Jul-16 12:58N 57°17' W 005°43'0 0.0
2018-Jul-16 12:27N 57°17' W 005°43'0 0.0
2018-Jul-16 11:58N 57°17' W 005°43'0 0.0
2018-Jul-16 11:29N 57°17' W 005°43'0 0.0
2018-Jul-16 11:00N 57°17' W 005°43'0 0.0
2018-Jul-16 10:28N 57°17' W 005°43'0 0.0
2018-Jul-16 09:59N 57°17' W 005°43'0 0.0
2018-Jul-16 09:30N 57°17' W 005°43'0 0.0
2018-Jul-16 09:00N 57°17' W 005°43'0 0.0
2018-Jul-16 08:28N 57°17' W 005°43'0 0.0
2018-Jul-16 07:59N 57°17' W 005°43'0 0.0
2018-Jul-16 07:30N 57°17' W 005°43'0 0.0
2018-Jul-16 07:00N 57°17' W 005°43'0 0.0
2018-Jul-16 06:28N 57°17' W 005°43'0 0.0
2018-Jul-16 05:58N 57°17' W 005°43'0 0.0
2018-Jul-16 05:30N 57°17' W 005°43'0 0.0
2018-Jul-16 04:58N 57°17' W 005°43'0 0.0
2018-Jul-16 04:29N 57°17' W 005°43'0 0.0
2018-Jul-16 03:58N 57°17' W 005°43'0 0.0
2018-Jul-16 03:29N 57°17' W 005°43'0 0.0
2018-Jul-16 03:00N 57°17' W 005°43'0 0.0
2018-Jul-16 02:28N 57°17' W 005°43'0 0.0
2018-Jul-16 01:59N 57°17' W 005°43'0 0.0
2018-Jul-16 01:30N 57°17' W 005°43'0 0.0
2018-Jul-16 00:59N 57°17' W 005°43'0 0.0
2018-Jul-16 00:29N 57°17' W 005°43'0 0.0
2018-Jul-15 23:58N 57°17' W 005°43'0 0.0
2018-Jul-15 23:29N 57°17' W 005°43'0 0.0
2018-Jul-15 22:52N 57°17' W 005°43'0 0.0
2018-Jul-15 22:26N 57°17' W 005°43'0 0.0
2018-Jul-15 21:59N 57°17' W 005°43'0 0.0
2018-Jul-15 21:25N 57°17' W 005°43'0 0.0
2018-Jul-15 20:59N 57°17' W 005°43'0 0.0
2018-Jul-15 20:24N 57°17' W 005°43'0 0.0
2018-Jul-15 19:54N 57°17' W 005°43'0 0.0
2018-Jul-15 19:26N 57°17' W 005°43'0 0.0
2018-Jul-15 19:00N 57°17' W 005°43'0 0.0
2018-Jul-15 18:28N 57°17' W 005°43'0 0.0
2018-Jul-15 18:00N 57°17' W 005°43'0 0.0
2018-Jul-15 17:28N 57°17' W 005°43'0 0.0
2018-Jul-15 16:59N 57°17' W 005°43'0 0.0
2018-Jul-15 16:30N 57°17' W 005°43'0 0.0
2018-Jul-15 15:59N 57°17' W 005°43'0 0.0
2018-Jul-15 15:27N 57°17' W 005°43'0 0.0
2018-Jul-15 14:59N 57°17' W 005°43'0 0.0
2018-Jul-15 14:24N 57°17' W 005°43'0 0.0
2018-Jul-15 13:58N 57°17' W 005°43'0 0.0
2018-Jul-15 13:28N 57°17' W 005°43'0 0.4
2018-Jul-15 13:00N 57°17' W 005°43'3 5.9
2018-Jul-15 12:30N 57°14' W 005°39'3 6.6
2018-Jul-15 11:59N 57°11' W 005°42'41 0.9
2018-Jul-13 16:05N 56°30' W 005°42'110.4
2018-Jul-13 16:00N 56°29' W 005°42'2 0.2
2018-Jul-13 07:47N 56°28' W 005°39'2 8.7
2018-Jul-13 07:30N 56°27' W 005°36'4 0.2
2018-Jul-12 10:34N 56°25' W 005°29'1 5.9
2018-Jul-12 10:26N 56°25' W 005°29'2 5.9
2018-Jul-12 10:00N 56°28' W 005°30'510.0
2018-Jul-12 09:30N 56°33' W 005°26'6 9.4
2018-Jul-12 08:53N 56°38' W 005°22'  

Dump ship's entire track history